Time;durP1;ratioP1;P1;durP2;ratioP2;P2;SDS_P1;SDS_P2;PMS_P1;PMS_P2;Temp;Humidity;BMP_temperature;BMP_pressure;BME280_temperature;BME280_humidity;BME280_pressure;Samples;Min_cycle;Max_cycle;Signal;HPM_P1;HPM_P2
2023/06/29 00:00:12;;;;;;;;;10.60;9.00;;;;;19.16;100.00;98645.69;6043444;28;96463;-66
2023/06/29 00:03:17;;;;;;;;;12.40;10.00;;;;;19.03;100.00;98652.59;6042485;28;96539;-66
2023/06/29 00:06:21;;;;;;;;;11.50;10.50;;;;;19.03;100.00;98660.81;6025570;28;99803;-66
2023/06/29 00:09:24;;;;;;;;;11.00;11.00;;;;;19.03;100.00;98662.72;6042954;28;96543;-66
2023/06/29 00:12:29;;;;;;;;;13.67;12.00;;;;;18.98;100.00;98665.47;6042917;28;97537;-66
2023/06/29 00:15:32;;;;;;;;;13.00;12.00;;;;;19.09;100.00;98671.72;6024940;28;96678;-66
2023/06/29 00:18:35;;;;;;;;;12.00;11.00;;;;;19.10;100.00;98673.34;6042983;28;97048;-66
2023/06/29 00:21:39;;;;;;;;;13.00;11.00;;;;;19.18;100.00;98672.75;6041115;28;96738;-66
2023/06/29 00:24:43;;;;;;;;;15.00;13.80;;;;;19.14;100.00;98674.41;6024335;28;100329;-67
2023/06/29 00:27:48;;;;;;;;;14.60;13.60;;;;;19.16;100.00;98674.94;6041160;28;97284;-65
2023/06/29 00:30:51;;;;;;;;;11.80;11.20;;;;;19.18;100.00;98676.28;6041640;28;96983;-66
2023/06/29 00:33:54;;;;;;;;;12.50;12.50;;;;;19.15;100.00;98652.28;6041578;28;96486;-65
2023/06/29 00:36:58;;;;;;;;;12.60;11.60;;;;;19.23;100.00;98676.25;6041517;28;97540;-66
2023/06/29 00:40:02;;;;;;;;;13.80;12.20;;;;;19.23;100.00;98675.44;6041305;28;96436;-66
2023/06/29 00:43:08;;;;;;;;;15.25;15.00;;;;;19.25;100.00;98678.72;6042812;28;96654;-66
2023/06/29 00:46:17;;;;;;;;;13.00;12.50;;;;;19.28;100.00;98675.41;6041392;28;96692;-66
2023/06/29 00:49:21;;;;;;;;;14.00;12.00;;;;;19.27;100.00;98671.03;6041702;28;96771;-66
2023/06/29 00:52:25;;;;;;;;;18.00;18.00;;;;;19.22;100.00;98649.22;6024939;28;97182;-66
2023/06/29 00:55:28;;;;;;;;;15.40;14.40;;;;;19.22;100.00;98650.03;6041112;28;96632;-66
2023/06/29 00:58:33;;;;;;;;;16.40;16.00;;;;;19.18;100.00;98648.97;6042145;28;96510;-66
2023/06/29 01:01:39;;;;;;;;;19.00;18.00;;;;;19.04;100.00;98629.66;6041170;28;96465;-66
2023/06/29 01:04:45;;;;;;;;;16.00;14.40;;;;;19.17;100.00;98646.50;6042560;28;96620;-66
2023/06/29 01:07:57;;;;;;;;;18.75;17.75;;;;;19.13;100.00;98637.25;6042288;28;96408;-65
2023/06/29 01:11:03;;;;;;;;;19.40;18.00;;;;;19.07;100.00;98639.19;6040387;28;98609;-66
2023/06/29 01:14:12;;;;;;;;;17.40;17.00;;;;;19.03;100.00;98632.66;6042103;28;96326;-66
2023/06/29 01:17:19;;;;;;;;;16.50;15.00;;;;;18.99;100.00;98626.13;6040993;28;96482;-66
2023/06/29 01:20:25;;;;;;;;;15.00;14.40;;;;;19.03;100.00;98632.66;6042247;28;96442;-66
2023/06/29 01:23:36;;;;;;;;;14.00;14.00;;;;;19.00;100.00;98630.50;6024067;28;97329;-66
2023/06/29 01:26:42;;;;;;;;;15.00;15.00;;;;;18.98;100.00;98633.50;6040730;28;96597;-65
2023/06/29 01:29:45;;;;;;;;;14.00;12.80;;;;;19.03;100.00;98638.13;6045441;28;96742;-66
2023/06/29 01:32:49;;;;;;;;;20.00;17.40;;;;;18.94;100.00;98645.28;6044873;28;96912;-65
2023/06/29 01:35:58;;;;;;;;;17.40;17.00;;;;;18.96;100.00;98649.34;6044594;28;96287;-66
2023/06/29 01:39:06;;;;;;;;;13.60;12.60;;;;;18.95;100.00;98641.47;6028207;28;96866;-66
2023/06/29 01:42:13;;;;;;;;;15.00;14.50;;;;;18.83;100.00;98635.50;6043778;28;96803;-66
2023/06/29 01:45:20;;;;;;;;;16.50;15.75;;;;;18.87;100.00;98645.59;6045606;28;96593;-65
2023/06/29 01:48:24;;;;;;;;;19.00;17.00;;;;;18.91;100.00;98649.38;6043888;28;97029;-65
2023/06/29 01:51:27;;;;;;;;;17.00;16.00;;;;;18.91;100.00;98657.59;6027057;28;97140;-65
2023/06/29 01:54:31;;;;;;;;;15.60;14.20;;;;;18.88;100.00;98654.59;6043436;28;96947;-65
2023/06/29 01:57:37;;;;;;;;;19.00;17.00;;;;;18.86;100.00;98654.88;6043600;28;96528;-65
2023/06/29 02:00:40;;;;;;;;;17.33;16.00;;;;;18.63;100.00;98636.41;6043004;28;96664;-66
2023/06/29 02:03:44;;;;;;;;;15.00;14.40;;;;;18.81;100.00;98656.84;6028815;28;96542;-66
2023/06/29 02:06:47;;;;;;;;;17.00;15.80;;;;;18.80;100.00;98649.75;6027667;28;99150;-65
2023/06/29 02:09:52;;;;;;;;;17.50;17.00;;;;;18.81;100.00;98654.09;6028269;28;96717;-66
2023/06/29 02:12:56;;;;;;;;;16.40;15.40;;;;;18.86;100.00;98659.53;6044132;28;96536;-66
2023/06/29 02:16:00;;;;;;;;;16.60;16.00;;;;;18.91;100.00;98673.19;6043524;28;96500;-66
2023/06/29 02:19:03;;;;;;;;;18.50;17.50;;;;;18.87;100.00;98669.34;6045229;28;96394;-66
2023/06/29 02:22:09;;;;;;;;;15.00;15.00;;;;;18.95;100.00;98671.50;6043429;28;96713;-66
2023/06/29 02:25:13;;;;;;;;;15.00;14.60;;;;;19.03;100.00;98671.72;6044576;28;96354;-66
2023/06/29 02:28:17;;;;;;;;;15.00;14.00;;;;;19.10;100.00;98682.38;6027135;28;98424;-66
2023/06/29 02:31:20;;;;;;;;;18.25;16.75;;;;;19.03;100.00;98677.19;6044697;28;97610;-66
2023/06/29 02:34:25;;;;;;;;;19.00;18.00;;;;;19.07;100.00;98679.34;6038235;28;96774;-66
2023/06/29 02:37:29;;;;;;;;;19.00;16.00;;;;;18.97;100.00;98681.03;6050542;28;96884;-66
2023/06/29 02:40:32;;;;;;;;;19.00;16.20;;;;;19.06;100.00;98675.00;6050961;28;97170;-66
2023/06/29 02:43:38;;;;;;;;;16.40;15.00;;;;;19.12;100.00;98682.88;6050919;28;97076;-66
2023/06/29 02:46:42;;;;;;;;;15.60;15.00;;;;;19.12;100.00;98685.63;6043532;28;97068;-66
2023/06/29 02:49:47;;;;;;;;;20.00;18.40;;;;;19.16;100.00;98686.69;6043218;28;96982;-66
2023/06/29 02:52:53;;;;;;;;;19.00;17.00;;;;;19.16;100.00;98689.41;6026908;28;96880;-66
2023/06/29 02:55:56;;;;;;;;;17.20;15.80;;;;;19.20;100.00;98685.03;6043112;28;96408;-65
2023/06/29 02:59:02;;;;;;;;;18.00;16.00;;;;;19.21;100.00;98689.38;6044761;28;96362;-66
2023/06/29 03:02:07;;;;;;;;;15.00;14.60;;;;;19.20;100.00;98684.22;6043340;28;97076;-66
2023/06/29 03:05:10;;;;;;;;;18.00;16.00;;;;;19.23;100.00;98684.47;6043439;28;96559;-65
2023/06/29 03:08:13;;;;;;;;;18.20;16.20;;;;;19.21;100.00;98685.81;6043142;28;96640;-66
2023/06/29 03:11:17;;;;;;;;;18.00;16.00;;;;;19.25;100.00;98692.38;6042789;28;96519;-66
2023/06/29 03:14:22;;;;;;;;;18.40;18.00;;;;;19.14;100.00;98690.81;6043972;28;96340;-65
2023/06/29 03:17:27;;;;;;;;;16.50;15.50;;;;;19.13;100.00;98695.44;6041954;28;98402;-66
2023/06/29 03:20:30;;;;;;;;;15.80;13.60;;;;;19.15;100.00;98696.00;6043712;28;96429;-66
2023/06/29 03:23:34;;;;;;;;;19.00;17.00;;;;;19.19;100.00;98694.34;6026309;28;96423;-66
2023/06/29 03:26:37;;;;;;;;;16.00;15.40;;;;;19.25;100.00;98695.94;6041751;28;96666;-66
2023/06/29 03:29:42;;;;;;;;;18.00;17.00;;;;;19.23;100.00;98697.31;6042103;28;96957;-66
2023/06/29 03:32:45;;;;;;;;;15.00;14.40;;;;;19.31;100.00;98689.31;6042408;28;97007;-66
2023/06/29 03:35:49;;;;;;;;;17.00;16.00;;;;;19.31;100.00;98704.91;6043208;28;96875;-66
2023/06/29 03:38:52;;;;;;;;;20.00;19.00;;;;;19.27;100.00;98706.56;6026224;28;96709;-66
2023/06/29 03:41:55;;;;;;;;;16.00;15.00;;;;;19.25;100.00;98703.31;6043695;28;96444;-65
2023/06/29 03:45:00;;;;;;;;;15.60;15.60;;;;;19.21;100.00;98707.69;6026657;28;96680;-66
2023/06/29 03:48:04;;;;;;;;;15.80;14.80;;;;;19.25;100.00;98698.69;6043425;28;96431;-66
2023/06/29 03:51:08;;;;;;;;;16.40;15.00;;;;;19.14;100.00;98702.56;6040020;28;96585;-66
2023/06/29 03:54:11;;;;;;;;;16.00;14.60;;;;;19.15;100.00;98711.56;6041196;28;96693;-66
2023/06/29 03:57:14;;;;;;;;;16.75;14.25;;;;;19.16;100.00;98710.44;6024007;28;96743;-66
2023/06/29 04:00:19;;;;;;;;;16.40;15.20;;;;;19.27;100.00;98720.25;6040268;28;96725;-66
2023/06/29 04:03:22;;;;;;;;;17.60;16.00;;;;;19.31;100.00;98719.38;6040073;28;96751;-66
2023/06/29 04:06:26;;;;;;;;;18.40;17.00;;;;;19.36;100.00;98722.09;6042988;28;96947;-66
2023/06/29 04:09:29;;;;;;;;;15.60;13.00;;;;;19.39;100.00;98729.75;6025133;28;98476;-66
2023/06/29 04:12:32;;;;;;;;;18.60;17.60;;;;;19.40;100.00;98717.69;6026032;28;97058;-65
2023/06/29 04:15:37;;;;;;;;;19.00;17.00;;;;;19.44;100.00;98723.47;6043433;28;96368;-66
2023/06/29 04:18:40;;;;;;;;;17.00;15.00;;;;;19.48;100.00;98710.03;6042848;28;96303;-66
2023/06/29 04:21:44;;;;;;;;;18.67;18.00;;;;;19.62;100.00;98717.31;6043154;28;96493;-66
2023/06/29 04:24:47;;;;;;;;;18.00;16.60;;;;;19.63;100.00;98713.47;6042734;28;96246;-66
2023/06/29 04:27:51;;;;;;;;;15.25;13.75;;;;;19.69;100.00;98717.00;6043051;28;96264;-66
2023/06/29 04:30:55;;;;;;;;;17.20;15.20;;;;;19.91;100.00;98714.63;6042811;28;96457;-65
2023/06/29 04:33:59;;;;;;;;;17.00;15.00;;;;;20.03;100.00;98720.56;6039474;28;97747;-66
2023/06/29 04:37:02;;;;;;;;;15.50;15.50;;;;;20.11;100.00;98725.41;6039855;28;96530;-66
2023/06/29 04:40:10;;;;;;;;;19.00;17.60;;;;;20.27;100.00;98723.34;6039995;28;97094;-66
2023/06/29 04:43:13;;;;;;;;;19.00;17.00;;;;;20.31;100.00;98725.25;6042151;28;96289;-66
2023/06/29 04:46:19;;;;;;;;;17.00;16.00;;;;;20.24;100.00;98730.19;6041926;28;96555;-66
2023/06/29 04:49:27;;;;;;;;;21.00;19.00;;;;;20.33;100.00;98724.16;6042318;28;96488;-66
2023/06/29 04:52:37;;;;;;;;;21.00;20.00;;;;;20.42;100.00;98728.69;6037407;28;98613;-66
2023/06/29 04:55:40;;;;;;;;;20.60;19.00;;;;;20.28;100.00;98725.78;6039096;28;97079;-66
2023/06/29 04:58:44;;;;;;;;;19.40;19.00;;;;;20.33;100.00;98737.84;6041922;28;97062;-66
2023/06/29 05:01:49;;;;;;;;;18.80;17.20;;;;;20.51;100.00;98732.44;6043721;28;96397;-67
2023/06/29 05:04:52;;;;;;;;;18.00;17.00;;;;;20.64;100.00;98731.72;6028551;28;98466;-66
2023/06/29 05:07:56;;;;;;;;;17.80;16.00;;;;;20.46;100.00;98748.91;6045899;28;97887;-66
2023/06/29 05:10:59;;;;;;;;;18.25;16.50;;;;;20.51;100.00;98748.88;6045971;28;96690;-66
2023/06/29 05:14:02;;;;;;;;;21.00;20.00;;;;;20.59;100.00;98742.75;6044567;28;98119;-66
2023/06/29 05:17:07;;;;;;;;;18.50;16.50;;;;;20.61;100.00;98713.16;6063849;28;97609;-66
2023/06/29 05:20:12;;;;;;;;;19.00;18.00;;;;;20.88;100.00;98734.47;6067957;28;96788;-66
2023/06/29 05:23:15;;;;;;;;;20.00;18.80;;;;;20.99;99.81;98733.25;6067427;28;96577;-66
2023/06/29 05:26:18;;;;;;;;;17.00;16.00;;;;;21.11;99.29;98727.34;6051555;28;97213;-65
2023/06/29 05:29:22;;;;;;;;;20.00;17.00;;;;;21.24;98.74;98734.06;6066805;28;96282;-66
2023/06/29 05:32:27;;;;;;;;;17.80;16.80;;;;;21.41;97.82;98729.69;6068869;28;96555;-66
2023/06/29 05:35:31;;;;;;;;;19.60;18.00;;;;;21.47;97.64;98734.00;6067709;28;96902;-66
2023/06/29 05:38:35;;;;;;;;;16.00;15.00;;;;;21.70;97.11;98736.97;6035824;28;98637;-66
2023/06/29 05:41:39;;;;;;;;;17.40;16.00;;;;;21.76;96.83;98738.50;6069229;28;96991;-66
2023/06/29 05:44:43;;;;;;;;;17.20;15.20;;;;;21.82;96.22;98738.13;6067664;28;97547;-66
2023/06/29 05:47:47;;;;;;;;;16.00;15.40;;;;;21.82;95.81;98737.31;6047981;28;97945;-65
2023/06/29 05:50:51;;;;;;;;;17.00;16.00;;;;;21.79;95.79;98746.16;6024851;28;96877;-66
2023/06/29 05:53:54;;;;;;;;;16.00;16.00;;;;;21.67;95.35;98743.03;6025133;28;97637;-65
2023/06/29 05:56:57;;;;;;;;;16.00;14.00;;;;;21.80;95.53;98739.53;6025254;28;98364;-66
2023/06/29 06:00:05;;;;;;;;;16.00;15.40;;;;;21.73;94.75;98739.94;6043211;28;96355;-66
2023/06/29 06:03:10;;;;;;;;;18.75;16.75;;;;;21.77;94.83;98746.44;6045699;28;96518;-66
2023/06/29 06:06:14;;;;;;;;;17.00;15.50;;;;;21.63;94.80;98744.75;6043884;28;96472;-66
2023/06/29 06:09:18;;;;;;;;;17.75;16.25;;;;;21.63;94.73;98742.00;6044862;28;96303;-66
2023/06/29 06:12:21;;;;;;;;;17.60;15.80;;;;;21.63;94.18;98747.50;6027148;28;98122;-66
2023/06/29 06:15:25;;;;;;;;;16.00;15.00;;;;;21.76;94.35;98746.72;6042540;28;98410;-66
2023/06/29 06:18:30;;;;;;;;;16.00;15.00;;;;;21.82;94.21;98740.88;6042796;28;98491;-66
2023/06/29 06:21:33;;;;;;;;;15.00;14.50;;;;;22.07;93.96;98744.34;6044643;28;96532;-66
2023/06/29 06:24:37;;;;;;;;;18.00;14.00;;;;;22.11;93.56;98726.16;6041973;28;97577;-66
2023/06/29 06:27:40;;;;;;;;;18.00;17.00;;;;;22.42;92.52;98741.81;6043362;28;96435;-66
2023/06/29 06:30:44;;;;;;;;;16.80;15.80;;;;;22.65;92.39;98742.75;6043086;28;96644;-66
2023/06/29 06:33:56;;;;;;;;;17.60;16.60;;;;;22.75;91.74;98728.03;6043171;28;97213;-66
2023/06/29 06:37:00;;;;;;;;;16.60;15.00;;;;;22.83;91.15;98738.31;6044455;28;96368;-66
2023/06/29 06:40:07;;;;;;;;;18.50;17.00;;;;;23.01;91.02;98731.91;6044455;28;97019;-66
2023/06/29 06:43:10;;;;;;;;;17.50;17.00;;;;;23.25;90.99;98740.75;6044398;28;96428;-66
2023/06/29 06:46:14;;;;;;;;;13.60;12.00;;;;;23.48;90.54;98729.81;6043968;28;96866;-66
2023/06/29 06:49:19;;;;;;;;;15.25;14.25;;;;;23.69;89.48;98728.22;6043571;28;96861;-66
2023/06/29 06:52:22;;;;;;;;;14.00;13.60;;;;;23.64;89.06;98734.69;6025797;28;96692;-66
2023/06/29 06:55:26;;;;;;;;;14.00;13.00;;;;;23.72;88.75;98725.66;6043747;28;97074;-66
2023/06/29 06:58:29;;;;;;;;;14.75;14.00;;;;;23.93;89.15;98714.97;6042142;28;98487;-66
2023/06/29 07:01:51;;;;;;;;;15.00;13.00;;;;;24.20;88.84;98718.72;6043817;28;96156;-66
2023/06/29 07:04:56;;;;;;;;;13.50;12.00;;;;;24.04;88.25;98719.09;6042960;28;96343;-66
2023/06/29 07:07:59;;;;;;;;;16.40;14.40;;;;;24.06;89.13;98707.75;6042488;28;96381;-66
2023/06/29 07:11:02;;;;;;;;;15.50;14.50;;;;;24.01;88.75;98721.66;6044306;28;96302;-66
2023/06/29 07:14:06;;;;;;;;;16.00;12.75;;;;;23.81;88.79;98728.47;6042902;28;98197;-66
2023/06/29 07:17:09;;;;;;;;;14.60;13.60;;;;;23.90;89.52;98717.53;6043863;28;96409;-66
2023/06/29 07:20:14;;;;;;;;;15.50;14.50;;;;;23.79;89.32;98722.50;6026995;28;96959;-66
2023/06/29 07:23:21;;;;;;;;;15.60;14.40;;;;;23.75;89.83;98724.22;6042053;28;96504;-66
2023/06/29 07:26:28;;;;;;;;;15.00;13.80;;;;;23.83;89.84;98729.00;6043013;28;96346;-66
2023/06/29 07:29:33;;;;;;;;;17.25;16.00;;;;;23.79;89.46;98729.94;6043089;28;97517;-66
2023/06/29 07:32:36;;;;;;;;;17.00;16.00;;;;;23.77;89.93;98727.47;6026064;28;98379;-66
2023/06/29 07:35:41;;;;;;;;;14.50;14.00;;;;;24.01;89.53;98716.97;6042601;28;96604;-66
2023/06/29 07:38:45;;;;;;;;;15.00;14.00;;;;;24.14;88.86;98716.06;6043355;28;96698;-66
2023/06/29 07:41:48;;;;;;;;;13.00;12.00;;;;;24.33;88.51;98718.69;6043402;28;96444;-66
2023/06/29 07:44:52;;;;;;;;;15.00;14.00;;;;;24.46;88.15;98730.72;6043380;28;96549;-66
2023/06/29 07:47:55;;;;;;;;;13.20;13.00;;;;;24.46;87.81;98727.97;6041092;28;96883;-66
2023/06/29 07:51:00;;;;;;;;;15.60;15.60;;;;;24.77;87.52;98726.03;6040015;28;96631;-66
2023/06/29 07:54:04;;;;;;;;;13.60;13.00;;;;;24.80;87.78;98727.31;6023260;28;96556;-66
2023/06/29 07:57:07;;;;;;;;;13.60;13.60;;;;;24.95;87.33;98722.22;6038402;28;96356;-66
2023/06/29 08:00:14;;;;;;;;;13.00;12.00;;;;;25.14;85.97;98721.94;6022522;28;96721;-66
2023/06/29 08:03:24;;;;;;;;;15.20;15.00;;;;;25.51;86.58;98723.28;6041233;28;96487;-66
2023/06/29 08:06:28;;;;;;;;;13.40;13.00;;;;;25.30;86.34;98667.09;6042977;28;96533;-66
2023/06/29 08:09:35;;;;;;;;;17.40;16.40;;;;;25.52;84.88;98727.66;6041842;28;97565;-66
2023/06/29 08:12:38;;;;;;;;;18.75;17.75;;;;;25.48;85.33;98721.19;6040807;28;98838;-66
2023/06/29 08:15:41;;;;;;;;;16.00;15.00;;;;;25.48;85.36;98731.41;6041127;28;96867;-66
2023/06/29 08:18:44;;;;;;;;;17.60;15.60;;;;;25.62;83.86;98718.28;6042293;28;96516;-66
2023/06/29 08:21:53;;;;;;;;;17.40;16.40;;;;;25.83;85.18;98720.09;6041486;28;97167;-67
2023/06/29 08:24:57;;;;;;;;;18.00;16.25;;;;;25.95;85.38;98719.41;6042516;28;96396;-66
2023/06/29 08:28:00;;;;;;;;;15.60;15.00;;;;;25.93;85.51;98720.91;6040825;28;98441;-66
2023/06/29 08:31:04;;;;;;;;;17.00;15.00;;;;;25.70;84.59;98721.06;6042473;28;96440;-67
2023/06/29 08:34:09;;;;;;;;;17.80;17.00;;;;;25.57;85.93;98724.78;6042152;28;96705;-66
2023/06/29 08:37:15;;;;;;;;;18.20;15.60;;;;;25.99;85.06;98720.41;6042313;28;96589;-67
2023/06/29 08:40:21;;;;;;;;;15.00;14.00;;;;;26.32;83.99;98728.19;6044217;28;96652;-66
2023/06/29 08:43:25;;;;;;;;;17.00;16.00;;;;;26.52;83.12;98722.75;6046821;28;96491;-66
2023/06/29 08:46:29;;;;;;;;;15.00;15.00;;;;;26.64;83.36;98722.03;6046514;28;96374;-66
2023/06/29 08:49:34;;;;;;;;;16.40;15.60;;;;;26.65;83.55;98734.75;6046384;28;96538;-66
2023/06/29 08:52:41;;;;;;;;;16.00;15.00;;;;;26.57;83.67;98728.13;6045369;28;96458;-66
2023/06/29 08:55:45;;;;;;;;;15.00;14.20;;;;;26.55;82.80;98727.63;6046898;28;96431;-67
2023/06/29 08:58:49;;;;;;;;;16.00;15.00;;;;;26.45;81.79;98716.91;6046660;28;96426;-66
2023/06/29 09:01:53;;;;;;;;;15.00;15.00;;;;;26.83;81.94;98721.66;6043914;28;96771;-66
2023/06/29 09:04:58;;;;;;;;;17.00;16.00;;;;;27.07;79.78;98728.22;6027261;28;98447;-66
2023/06/29 09:08:03;;;;;;;;;17.50;16.50;;;;;27.35;79.44;98730.53;6038660;28;96747;-66
2023/06/29 09:11:06;;;;;;;;;18.00;17.00;;;;;27.48;78.98;98729.44;6044960;28;96864;-66
2023/06/29 09:14:10;;;;;;;;;16.00;14.00;;;;;27.44;79.37;98731.28;6044859;28;96343;-66
2023/06/29 09:17:15;;;;;;;;;15.00;15.00;;;;;27.66;79.88;98741.25;6028768;28;99721;-66
2023/06/29 09:20:21;;;;;;;;;14.00;13.40;;;;;27.95;77.87;98730.88;6046759;28;97083;-66
2023/06/29 09:23:29;;;;;;;;;14.00;13.00;;;;;28.29;76.39;98709.56;6044247;28;97390;-66
2023/06/29 09:26:33;;;;;;;;;13.60;12.60;;;;;28.59;75.64;98726.88;6042662;28;96472;-66
2023/06/29 09:29:37;;;;;;;;;15.00;13.00;;;;;28.44;73.15;98731.88;6043704;28;96434;-66
2023/06/29 09:32:42;;;;;;;;;11.00;11.00;;;;;28.66;72.98;98733.44;6043690;28;99036;-66
2023/06/29 09:35:47;;;;;;;;;10.25;9.00;;;;;28.77;69.82;98733.84;6026393;28;98615;-67
2023/06/29 09:38:52;;;;;;;;;12.00;12.00;;;;;28.97;66.43;98730.16;6012886;28;98415;-66
2023/06/29 09:41:56;;;;;;;;;11.40;11.00;;;;;29.10;65.78;98731.78;6045698;28;96318;-66
2023/06/29 09:45:02;;;;;;;;;12.40;11.40;;;;;29.53;60.87;98731.16;6044315;28;96425;-66
2023/06/29 09:48:10;;;;;;;;;11.67;11.67;;;;;29.47;63.12;98720.66;6041530;28;96719;-67
2023/06/29 09:51:21;;;;;;;;;11.00;10.40;;;;;29.25;65.14;98739.41;6042511;28;96468;-66
2023/06/29 09:54:26;;;;;;;;;11.00;10.80;;;;;28.89;65.70;98746.91;6025047;28;96790;-66
2023/06/29 09:57:30;;;;;;;;;15.00;14.00;;;;;28.54;69.29;98738.97;6041460;28;96701;-66
2023/06/29 10:00:34;;;;;;;;;15.20;15.00;;;;;28.68;70.29;98745.03;6042040;28;96477;-66
2023/06/29 10:03:37;;;;;;;;;18.00;17.00;;;;;28.75;73.12;98747.25;6044772;28;96264;-67
2023/06/29 10:06:44;;;;;;;;;14.60;14.60;;;;;28.68;73.79;98747.78;6042622;28;97244;-67
2023/06/29 10:09:51;;;;;;;;;18.60;16.60;;;;;28.65;71.52;98734.59;6042711;28;98819;-67
2023/06/29 10:12:56;;;;;;;;;13.80;12.80;;;;;28.81;68.83;98738.34;6043660;28;96458;-67
2023/06/29 10:16:03;;;;;;;;;15.20;13.80;;;;;28.98;69.01;98737.31;6024230;28;98492;-66
2023/06/29 10:19:14;;;;;;;;;13.00;12.00;;;;;28.28;71.04;98744.00;6042449;28;96361;-67
2023/06/29 10:22:19;;;;;;;;;14.00;14.00;;;;;28.49;70.64;98733.66;6045120;28;96474;-67
2023/06/29 10:25:26;;;;;;;;;13.00;13.00;;;;;28.88;68.46;98742.53;6044695;28;96405;-66
2023/06/29 10:28:29;;;;;;;;;12.60;12.60;;;;;28.63;65.10;98742.47;6026951;28;96658;-67
2023/06/29 10:31:33;;;;;;;;;14.00;13.00;;;;;28.95;66.38;98734.44;6043984;28;96263;-67
2023/06/29 10:34:59;;;;;;;;;13.33;13.00;;;;;28.84;66.72;98734.06;6043870;28;96824;-67
2023/06/29 10:38:11;;;;;;;;;18.00;15.00;;;;;28.78;69.13;98736.25;6044705;28;96389;-66
2023/06/29 10:41:29;;;;;;;;;14.00;14.00;;;;;28.68;62.61;98739.47;6044557;28;96420;-67
2023/06/29 10:44:35;;;;;;;;;15.00;13.00;;;;;29.07;62.38;98726.94;6026959;28;96679;-67
2023/06/29 10:47:39;;;;;;;;;12.60;11.20;;;;;29.25;59.90;98727.50;6026780;28;98452;-67
2023/06/29 10:50:44;;;;;;;;;13.00;12.00;;;;;29.56;59.37;98726.91;6044215;28;96546;-67
2023/06/29 10:53:50;;;;;;;;;13.50;12.50;;;;;29.72;58.32;98727.75;6044318;28;96414;-67
2023/06/29 10:56:59;;;;;;;;;14.00;13.00;;;;;29.80;60.35;98720.47;6042014;28;96371;-66
2023/06/29 11:00:04;;;;;;;;;12.00;11.20;;;;;29.97;58.42;98729.34;6042521;28;97566;-66
2023/06/29 11:03:09;;;;;;;;;13.25;12.25;;;;;29.93;59.22;98725.66;6042578;28;96957;-67
2023/06/29 11:06:13;;;;;;;;;13.80;13.80;;;;;30.15;55.96;98721.53;6043835;28;96529;-67
2023/06/29 11:09:35;;;;;;;;;15.00;12.60;;;;;30.66;56.48;98713.34;6044164;28;96310;-67
2023/06/29 11:12:40;;;;;;;;;13.50;12.00;;;;;30.52;57.02;98709.03;6042208;28;96302;-67
2023/06/29 11:15:45;;;;;;;;;13.50;12.50;;;;;30.46;56.56;98720.78;6041873;28;96405;-67
2023/06/29 11:18:49;;;;;;;;;13.00;12.00;;;;;30.48;52.82;98724.84;6040229;28;96928;-67
2023/06/29 11:21:54;;;;;;;;;10.60;10.00;;;;;30.74;54.42;98715.94;6041802;28;96366;-66
2023/06/29 11:24:57;;;;;;;;;11.00;11.00;;;;;30.71;53.31;98715.88;6025834;28;96642;-67
2023/06/29 11:28:05;;;;;;;;;12.00;11.80;;;;;30.47;54.66;98705.72;6010397;28;96756;-67
2023/06/29 11:31:08;;;;;;;;;13.00;12.00;;;;;30.41;55.36;98715.44;6041749;28;96294;-67
2023/06/29 11:34:14;;;;;;;;;12.50;11.00;;;;;30.77;53.50;98706.91;6023427;28;96906;-66
2023/06/29 11:37:21;;;;;;;;;9.20;9.00;;;;;30.94;52.30;98719.63;6041020;28;97092;-66
2023/06/29 11:40:26;;;;;;;;;12.00;12.00;;;;;30.75;51.98;98712.00;6040144;28;96646;-66
2023/06/29 11:43:31;;;;;;;;;12.40;11.40;;;;;30.73;52.55;98708.78;6023540;28;97638;-66
2023/06/29 11:46:35;;;;;;;;;9.40;9.40;;;;;30.95;49.34;98705.38;6039836;28;97138;-67
2023/06/29 11:49:38;;;;;;;;;16.00;14.80;;;;;30.84;51.78;98715.41;6021706;28;99586;-66
2023/06/29 11:52:44;;;;;;;;;14.00;13.40;;;;;30.80;52.46;98700.59;6038235;28;96575;-66
2023/06/29 11:55:51;;;;;;;;;14.00;13.00;;;;;30.84;52.08;98670.88;6040327;28;96401;-66
2023/06/29 11:58:56;;;;;;;;;11.80;10.80;;;;;30.82;49.41;98691.91;6041237;28;96406;-66
2023/06/29 12:02:01;;;;;;;;;11.00;10.40;;;;;31.05;48.99;98692.91;6009339;28;96707;-67
2023/06/29 12:05:05;;;;;;;;;9.00;8.00;;;;;31.09;46.95;98687.41;6039173;28;96155;-67
2023/06/29 12:08:10;;;;;;;;;11.00;10.40;;;;;31.18;48.69;98685.25;6040742;28;96688;-67
2023/06/29 12:11:17;;;;;;;;;12.25;11.00;;;;;30.91;47.19;98682.19;6039768;28;96310;-67
2023/06/29 12:14:27;;;;;;;;;11.60;11.00;;;;;30.48;49.16;98677.53;6045557;28;98646;-66
2023/06/29 12:17:30;;;;;;;;;14.60;13.60;;;;;30.24;51.85;98677.66;6066282;28;96611;-66
2023/06/29 12:20:41;;;;;;;;;11.40;10.40;;;;;30.49;50.96;98672.78;6065054;28;96527;-66
2023/06/29 12:23:44;;;;;;;;;12.20;11.00;;;;;30.65;52.43;98665.22;6046296;28;96470;-67
2023/06/29 12:26:48;;;;;;;;;14.00;13.00;;;;;30.98;50.97;98660.06;6041165;28;96956;-66
2023/06/29 12:29:52;;;;;;;;;14.00;13.00;;;;;31.19;46.48;98653.41;6041463;28;96767;-67
2023/06/29 12:32:56;;;;;;;;;10.75;10.75;;;;;30.87;45.38;98659.03;6022368;28;98699;-67
2023/06/29 12:35:59;;;;;;;;;13.00;12.00;;;;;30.74;47.82;98654.72;6048405;28;97271;-66
2023/06/29 12:39:02;;;;;;;;;12.00;11.50;;;;;31.05;48.66;98653.09;6065941;28;96859;-67
2023/06/29 12:42:07;;;;;;;;;15.00;14.25;;;;;30.94;47.94;98647.25;6064398;28;96696;-66
2023/06/29 12:45:12;;;;;;;;;13.00;13.00;;;;;30.86;47.59;98651.03;6065745;28;96308;-67
2023/06/29 12:48:15;;;;;;;;;10.60;10.60;;;;;31.13;47.68;98652.91;6065661;28;96418;-67
2023/06/29 12:51:19;;;;;;;;;12.60;12.60;;;;;31.16;44.79;98654.16;6065824;28;96590;-67
2023/06/29 12:54:22;;;;;;;;;10.40;10.00;;;;;30.97;45.42;98639.00;6064087;28;96520;-66
2023/06/29 12:57:28;;;;;;;;;11.40;11.00;;;;;31.01;46.87;98627.13;6066061;28;96730;-66
2023/06/29 13:00:33;;;;;;;;;12.80;11.40;;;;;31.14;45.04;98643.38;6065546;28;96449;-67
2023/06/29 13:03:36;;;;;;;;;12.20;11.80;;;;;30.66;44.39;98621.53;6055569;28;96674;-67
2023/06/29 13:06:41;;;;;;;;;10.00;9.20;;;;;30.78;46.14;98633.38;6024956;28;98755;-67
2023/06/29 13:09:47;;;;;;;;;11.40;10.40;;;;;30.80;45.33;98613.50;6024734;28;96753;-67
2023/06/29 13:12:50;;;;;;;;;9.25;8.50;;;;;30.83;44.28;98626.72;6041068;28;96293;-66
2023/06/29 13:15:55;;;;;;;;;10.20;10.00;;;;;30.64;45.36;98623.88;6041965;28;96941;-66
2023/06/29 13:18:58;;;;;;;;;8.00;8.00;;;;;30.34;44.74;98607.63;6041922;28;96333;-66
2023/06/29 13:22:03;;;;;;;;;10.20;10.20;;;;;30.27;46.52;98607.41;6024396;28;96894;-67
2023/06/29 13:25:07;;;;;;;;;7.25;6.75;;;;;30.41;46.12;98616.13;6045125;28;96410;-67
2023/06/29 13:28:11;;;;;;;;;12.00;12.00;;;;;30.29;47.50;98607.06;6045648;28;96952;-66
2023/06/29 13:31:16;;;;;;;;;10.25;10.00;;;;;30.00;46.38;98609.13;6043115;28;97638;-67
2023/06/29 13:34:20;;;;;;;;;8.60;7.60;;;;;29.76;47.49;98608.41;6044744;28;96639;-66
2023/06/29 13:37:23;;;;;;;;;8.60;8.00;;;;;29.72;47.93;98605.50;6028017;28;96666;-67
2023/06/29 13:40:28;;;;;;;;;8.80;8.00;;;;;29.99;50.03;98610.28;6012776;28;98669;-66
2023/06/29 13:43:31;;;;;;;;;8.60;8.00;;;;;30.34;47.88;98604.03;6045170;28;96667;-67
2023/06/29 13:46:37;;;;;;;;;9.00;9.00;;;;;30.29;45.34;98593.16;6043241;28;96861;-66
2023/06/29 13:49:40;;;;;;;;;8.25;7.25;;;;;30.13;44.99;98605.09;6043017;28;97618;-66
2023/06/29 13:52:43;;;;;;;;;8.00;8.00;;;;;29.96;45.06;98601.81;6024604;28;96721;-66
2023/06/29 13:55:47;;;;;;;;;10.50;9.00;;;;;29.71;47.14;98578.91;6044182;28;96304;-66
2023/06/29 13:58:51;;;;;;;;;10.00;9.00;;;;;29.91;47.85;98597.31;6043595;28;96813;-66
2023/06/29 14:01:55;;;;;;;;;7.00;7.00;;;;;29.89;47.59;98598.88;6043844;28;96860;-66
2023/06/29 14:04:59;;;;;;;;;7.00;7.00;;;;;29.92;47.68;98587.84;6044750;28;96242;-66